Aérodrome :
LOGIN :

S'inscrire | Disclaimer

   EN    FR    IT 

 










Légende :    VFR   VFR Marginal   IFR   IFR Intensif   IFR Très Intensif
Visi : 
Plafond : 
>= 8 km
>= 3000ft
5 à 8 km
1000 à 3000 ft
1500m à 5 km
500 à 1000 ft
800 à 1500m
200 à 500 ft
< 800m
< 200 ft
Symboles :   Orages  Brouillard  Fortes neiges  Fortes précipitations  Vent > 20 kt
SIGMETs :   Divers  Orages  Givrage  Turbulence  Onde Orograph.  Cendres Volcan.







- Altitude de l'aérodrome : 7 ft
- Code IATA : VCE


LIPZ - Marco Polo Int. Venezia

DERNIER METAR :
  • 220550Z 35003KT 330V040 2000 BR BKN018 06/05 Q1018 NOSIG

METARs EXPIRÉS :
  • 220520Z VRB02KT 2000 BR BKN018 06/05 Q1019 NOSIG
  • 220450Z 30003KT 270V330 1800 BR BKN015 06/05 Q1019 NOSIG
  • 220420Z 31003KT 260V330 1800 BR BKN015 06/05 Q1019 NOSIG
  • 220350Z 34005KT 320V040 2000 BR BKN015 06/05 Q1019 NOSIG
  • 220320Z 31004KT 1800 BR BKN015 06/05 Q1019 NOSIG

TAF TAF LIPZ
Valide du 22 à 06h jusqu'au 23 à 12h UTC


220500Z 2206/2312 VRB06KT 1500 BR OVC005
BECMG 2210/2212 3000 SCT012
BECMG 2221/2223 0600 FG OVC001
BECMG 2308/2310 2000 BR
Pas de NOTAMs connus pour ce terrain.



MET'MAP, la Météo Aéronautique d'un coup d'oeil ! - Copyright ORBIFLY Décembre 2007 - Disclaimer

ORBIFLY MET'MAP TEAM :

Programmation & Développement : Alexandra Zaïnal
Conception & Développement : Baudouin d'Aumeries
Co-Programmation & Développement : Marc-Olivier Méhu
Soutien technique & logistique : Manuel Goepfert

Contact : metmap@orbifly.com




SOURCES & CREDITS :

   NOAA